sensor_id;sensor_type;location;lat;lon;timestamp;P1;durP1;ratioP1;P2;durP2;ratioP2
22034;SDS011;11181;51.002;4.356;2023-07-09T00:01:23;6.05;;;4.65;;
22034;SDS011;11181;51.002;4.356;2023-07-09T00:03:50;9.27;;;4.18;;
22034;SDS011;11181;51.002;4.356;2023-07-09T00:06:18;9.02;;;4.70;;
22034;SDS011;11181;51.002;4.356;2023-07-09T00:08:45;7.70;;;3.90;;
22034;SDS011;11181;51.002;4.356;2023-07-09T00:11:13;5.65;;;3.90;;
22034;SDS011;11181;51.002;4.356;2023-07-09T00:13:40;5.40;;;4.10;;
22034;SDS011;11181;51.002;4.356;2023-07-09T00:16:11;5.40;;;4.18;;
22034;SDS011;11181;51.002;4.356;2023-07-09T00:18:41;6.20;;;3.92;;
22034;SDS011;11181;51.002;4.356;2023-07-09T00:21:08;5.30;;;3.90;;
22034;SDS011;11181;51.002;4.356;2023-07-09T00:23:35;7.03;;;4.22;;
22034;SDS011;11181;51.002;4.356;2023-07-09T00:26:04;7.05;;;4.63;;
22034;SDS011;11181;51.002;4.356;2023-07-09T00:28:35;6.97;;;4.63;;
22034;SDS011;11181;51.002;4.356;2023-07-09T00:31:02;6.10;;;4.18;;
22034;SDS011;11181;51.002;4.356;2023-07-09T00:33:29;9.00;;;4.40;;
22034;SDS011;11181;51.002;4.356;2023-07-09T00:35:57;8.50;;;4.45;;
22034;SDS011;11181;51.002;4.356;2023-07-09T00:38:26;8.98;;;4.28;;
22034;SDS011;11181;51.002;4.356;2023-07-09T00:41:01;7.15;;;4.25;;
22034;SDS011;11181;51.002;4.356;2023-07-09T00:43:30;7.80;;;4.63;;
22034;SDS011;11181;51.002;4.356;2023-07-09T00:49:01;9.43;;;5.05;;
22034;SDS011;11181;51.002;4.356;2023-07-09T00:51:32;8.43;;;4.00;;
22034;SDS011;11181;51.002;4.356;2023-07-09T00:54:08;8.30;;;4.63;;
22034;SDS011;11181;51.002;4.356;2023-07-09T00:56:43;6.78;;;4.43;;
22034;SDS011;11181;51.002;4.356;2023-07-09T00:59:16;7.10;;;4.63;;
22034;SDS011;11181;51.002;4.356;2023-07-09T01:01:47;6.57;;;4.68;;
22034;SDS011;11181;51.002;4.356;2023-07-09T01:04:15;7.68;;;4.80;;
22034;SDS011;11181;51.002;4.356;2023-07-09T01:06:48;6.93;;;4.65;;
22034;SDS011;11181;51.002;4.356;2023-07-09T01:09:19;7.60;;;4.78;;
22034;SDS011;11181;51.002;4.356;2023-07-09T01:11:48;9.07;;;5.05;;
22034;SDS011;11181;51.002;4.356;2023-07-09T01:14:16;9.68;;;5.10;;
22034;SDS011;11181;51.002;4.356;2023-07-09T01:16:48;6.47;;;4.25;;
22034;SDS011;11181;51.002;4.356;2023-07-09T01:19:22;5.75;;;4.50;;
22034;SDS011;11181;51.002;4.356;2023-07-09T01:21:53;8.20;;;4.85;;
22034;SDS011;11181;51.002;4.356;2023-07-09T01:27:21;9.50;;;5.57;;
22034;SDS011;11181;51.002;4.356;2023-07-09T01:29:52;9.68;;;4.95;;
22034;SDS011;11181;51.002;4.356;2023-07-09T01:32:20;7.47;;;5.10;;
22034;SDS011;11181;51.002;4.356;2023-07-09T01:34:57;7.25;;;4.32;;
22034;SDS011;11181;51.002;4.356;2023-07-09T01:37:36;8.60;;;5.10;;
22034;SDS011;11181;51.002;4.356;2023-07-09T01:40:05;6.95;;;5.13;;
22034;SDS011;11181;51.002;4.356;2023-07-09T01:42:47;6.68;;;4.80;;
22034;SDS011;11181;51.002;4.356;2023-07-09T01:45:24;10.43;;;4.38;;
22034;SDS011;11181;51.002;4.356;2023-07-09T01:47:55;8.40;;;4.65;;
22034;SDS011;11181;51.002;4.356;2023-07-09T01:50:26;7.63;;;5.05;;
22034;SDS011;11181;51.002;4.356;2023-07-09T01:53:04;7.07;;;4.30;;
22034;SDS011;11181;51.002;4.356;2023-07-09T01:55:42;9.68;;;4.57;;
22034;SDS011;11181;51.002;4.356;2023-07-09T01:58:28;17.95;;;6.60;;
22034;SDS011;11181;51.002;4.356;2023-07-09T02:00:58;7.38;;;5.57;;
22034;SDS011;11181;51.002;4.356;2023-07-09T02:03:30;5.13;;;4.18;;
22034;SDS011;11181;51.002;4.356;2023-07-09T02:05:59;5.65;;;4.00;;
22034;SDS011;11181;51.002;4.356;2023-07-09T02:08:43;6.07;;;4.82;;
22034;SDS011;11181;51.002;4.356;2023-07-09T02:11:31;8.35;;;4.40;;
22034;SDS011;11181;51.002;4.356;2023-07-09T02:14:21;7.70;;;5.05;;
22034;SDS011;11181;51.002;4.356;2023-07-09T02:17:03;9.10;;;4.47;;
22034;SDS011;11181;51.002;4.356;2023-07-09T02:19:33;4.90;;;4.05;;
22034;SDS011;11181;51.002;4.356;2023-07-09T02:22:16;5.55;;;4.13;;
22034;SDS011;11181;51.002;4.356;2023-07-09T02:25:01;7.45;;;4.70;;
22034;SDS011;11181;51.002;4.356;2023-07-09T02:27:40;6.13;;;4.57;;
22034;SDS011;11181;51.002;4.356;2023-07-09T02:30:13;6.18;;;4.40;;
22034;SDS011;11181;51.002;4.356;2023-07-09T02:33:05;5.15;;;4.60;;
22034;SDS011;11181;51.002;4.356;2023-07-09T02:35:32;7.13;;;4.50;;
22034;SDS011;11181;51.002;4.356;2023-07-09T02:38:01;6.25;;;4.45;;
22034;SDS011;11181;51.002;4.356;2023-07-09T02:40:40;9.13;;;5.28;;
22034;SDS011;11181;51.002;4.356;2023-07-09T02:43:07;10.20;;;5.32;;
22034;SDS011;11181;51.002;4.356;2023-07-09T02:45:41;8.95;;;5.53;;
22034;SDS011;11181;51.002;4.356;2023-07-09T02:48:09;7.15;;;5.43;;
22034;SDS011;11181;51.002;4.356;2023-07-09T02:50:36;7.78;;;4.70;;
22034;SDS011;11181;51.002;4.356;2023-07-09T02:53:03;7.35;;;4.53;;
22034;SDS011;11181;51.002;4.356;2023-07-09T02:55:30;11.23;;;6.00;;
22034;SDS011;11181;51.002;4.356;2023-07-09T02:58:00;8.52;;;4.90;;
22034;SDS011;11181;51.002;4.356;2023-07-09T03:00:27;9.05;;;5.57;;
22034;SDS011;11181;51.002;4.356;2023-07-09T03:02:56;6.65;;;4.93;;
22034;SDS011;11181;51.002;4.356;2023-07-09T03:05:23;6.60;;;5.00;;
22034;SDS011;11181;51.002;4.356;2023-07-09T03:07:53;9.40;;;5.45;;
22034;SDS011;11181;51.002;4.356;2023-07-09T03:10:22;6.25;;;4.70;;
22034;SDS011;11181;51.002;4.356;2023-07-09T03:12:49;8.68;;;5.15;;
22034;SDS011;11181;51.002;4.356;2023-07-09T03:15:18;6.38;;;4.90;;
22034;SDS011;11181;51.002;4.356;2023-07-09T03:17:47;7.32;;;4.82;;
22034;SDS011;11181;51.002;4.356;2023-07-09T03:20:14;9.18;;;5.18;;
22034;SDS011;11181;51.002;4.356;2023-07-09T03:22:41;8.93;;;5.68;;
22034;SDS011;11181;51.002;4.356;2023-07-09T03:25:08;8.82;;;5.07;;
22034;SDS011;11181;51.002;4.356;2023-07-09T03:27:36;10.50;;;6.18;;
22034;SDS011;11181;51.002;4.356;2023-07-09T03:30:03;6.68;;;4.93;;
22034;SDS011;11181;51.002;4.356;2023-07-09T03:32:32;8.70;;;5.50;;
22034;SDS011;11181;51.002;4.356;2023-07-09T03:34:59;6.10;;;4.30;;
22034;SDS011;11181;51.002;4.356;2023-07-09T03:37:26;7.82;;;4.97;;
22034;SDS011;11181;51.002;4.356;2023-07-09T03:39:53;7.05;;;5.05;;
22034;SDS011;11181;51.002;4.356;2023-07-09T03:42:20;7.15;;;5.38;;
22034;SDS011;11181;51.002;4.356;2023-07-09T03:44:47;8.15;;;5.03;;
22034;SDS011;11181;51.002;4.356;2023-07-09T03:47:14;10.35;;;5.57;;
22034;SDS011;11181;51.002;4.356;2023-07-09T03:49:44;7.03;;;5.25;;
22034;SDS011;11181;51.002;4.356;2023-07-09T03:52:11;6.40;;;5.72;;
22034;SDS011;11181;51.002;4.356;2023-07-09T03:54:38;6.90;;;4.75;;
22034;SDS011;11181;51.002;4.356;2023-07-09T03:57:05;6.55;;;5.88;;
22034;SDS011;11181;51.002;4.356;2023-07-09T03:59:33;7.05;;;5.40;;
22034;SDS011;11181;51.002;4.356;2023-07-09T04:02:03;7.88;;;5.10;;
22034;SDS011;11181;51.002;4.356;2023-07-09T04:04:32;8.50;;;5.45;;
22034;SDS011;11181;51.002;4.356;2023-07-09T04:07:00;8.85;;;5.32;;
22034;SDS011;11181;51.002;4.356;2023-07-09T04:09:28;5.57;;;4.90;;
22034;SDS011;11181;51.002;4.356;2023-07-09T04:11:58;6.13;;;4.22;;
22034;SDS011;11181;51.002;4.356;2023-07-09T04:14:26;6.97;;;4.75;;
22034;SDS011;11181;51.002;4.356;2023-07-09T04:16:53;12.07;;;7.57;;
22034;SDS011;11181;51.002;4.356;2023-07-09T04:19:22;7.63;;;5.75;;
22034;SDS011;11181;51.002;4.356;2023-07-09T04:21:49;7.72;;;4.90;;
22034;SDS011;11181;51.002;4.356;2023-07-09T04:24:18;8.30;;;5.57;;
22034;SDS011;11181;51.002;4.356;2023-07-09T04:26:47;8.68;;;5.22;;
22034;SDS011;11181;51.002;4.356;2023-07-09T04:29:16;6.65;;;5.60;;
22034;SDS011;11181;51.002;4.356;2023-07-09T04:31:43;8.10;;;5.57;;
22034;SDS011;11181;51.002;4.356;2023-07-09T04:34:10;6.53;;;5.40;;
22034;SDS011;11181;51.002;4.356;2023-07-09T04:36:37;9.68;;;5.70;;
22034;SDS011;11181;51.002;4.356;2023-07-09T04:39:06;9.65;;;6.38;;
22034;SDS011;11181;51.002;4.356;2023-07-09T04:41:35;6.80;;;5.60;;
22034;SDS011;11181;51.002;4.356;2023-07-09T04:44:03;12.30;;;6.80;;
22034;SDS011;11181;51.002;4.356;2023-07-09T04:46:31;8.27;;;5.40;;
22034;SDS011;11181;51.002;4.356;2023-07-09T04:48:58;5.65;;;4.97;;
22034;SDS011;11181;51.002;4.356;2023-07-09T04:51:26;5.57;;;4.85;;
22034;SDS011;11181;51.002;4.356;2023-07-09T04:53:53;8.40;;;5.88;;
22034;SDS011;11181;51.002;4.356;2023-07-09T04:56:20;7.38;;;5.75;;
22034;SDS011;11181;51.002;4.356;2023-07-09T04:58:49;9.30;;;5.45;;
22034;SDS011;11181;51.002;4.356;2023-07-09T05:01:16;8.20;;;5.38;;
22034;SDS011;11181;51.002;4.356;2023-07-09T05:03:45;6.72;;;5.15;;
22034;SDS011;11181;51.002;4.356;2023-07-09T05:06:12;9.48;;;5.18;;
22034;SDS011;11181;51.002;4.356;2023-07-09T05:08:40;10.48;;;6.47;;
22034;SDS011;11181;51.002;4.356;2023-07-09T05:11:09;8.77;;;5.60;;
22034;SDS011;11181;51.002;4.356;2023-07-09T05:13:36;6.18;;;5.07;;
22034;SDS011;11181;51.002;4.356;2023-07-09T05:16:04;10.43;;;6.63;;
22034;SDS011;11181;51.002;4.356;2023-07-09T05:18:32;9.02;;;5.53;;
22034;SDS011;11181;51.002;4.356;2023-07-09T05:21:00;8.35;;;5.88;;
22034;SDS011;11181;51.002;4.356;2023-07-09T05:23:27;10.65;;;6.30;;
22034;SDS011;11181;51.002;4.356;2023-07-09T05:25:57;13.70;;;8.30;;
22034;SDS011;11181;51.002;4.356;2023-07-09T05:28:28;12.23;;;8.57;;
22034;SDS011;11181;51.002;4.356;2023-07-09T05:30:58;14.85;;;11.25;;
22034;SDS011;11181;51.002;4.356;2023-07-09T05:33:33;17.55;;;12.50;;
22034;SDS011;11181;51.002;4.356;2023-07-09T05:36:08;18.88;;;14.50;;
22034;SDS011;11181;51.002;4.356;2023-07-09T05:38:41;23.42;;;16.40;;
22034;SDS011;11181;51.002;4.356;2023-07-09T05:41:08;23.95;;;21.40;;
22034;SDS011;11181;51.002;4.356;2023-07-09T05:43:36;29.23;;;23.73;;
22034;SDS011;11181;51.002;4.356;2023-07-09T05:46:05;32.55;;;27.35;;
22034;SDS011;11181;51.002;4.356;2023-07-09T05:48:33;39.80;;;29.52;;
22034;SDS011;11181;51.002;4.356;2023-07-09T05:51:00;33.60;;;28.25;;
22034;SDS011;11181;51.002;4.356;2023-07-09T05:53:30;34.58;;;28.92;;
22034;SDS011;11181;51.002;4.356;2023-07-09T05:55:58;37.17;;;29.65;;
22034;SDS011;11181;51.002;4.356;2023-07-09T05:58:25;37.63;;;29.08;;
22034;SDS011;11181;51.002;4.356;2023-07-09T06:00:54;39.15;;;34.47;;
22034;SDS011;11181;51.002;4.356;2023-07-09T06:03:33;41.67;;;33.50;;
22034;SDS011;11181;51.002;4.356;2023-07-09T06:06:17;44.58;;;36.92;;
22034;SDS011;11181;51.002;4.356;2023-07-09T06:08:49;46.08;;;38.20;;
22034;SDS011;11181;51.002;4.356;2023-07-09T06:11:21;49.13;;;38.00;;
22034;SDS011;11181;51.002;4.356;2023-07-09T06:13:51;51.45;;;39.65;;
22034;SDS011;11181;51.002;4.356;2023-07-09T06:16:27;45.83;;;39.30;;
22034;SDS011;11181;51.002;4.356;2023-07-09T06:19:18;55.42;;;42.20;;
22034;SDS011;11181;51.002;4.356;2023-07-09T06:22:07;49.00;;;40.75;;
22034;SDS011;11181;51.002;4.356;2023-07-09T06:24:45;54.47;;;41.78;;
22034;SDS011;11181;51.002;4.356;2023-07-09T06:27:22;52.05;;;42.00;;
22034;SDS011;11181;51.002;4.356;2023-07-09T06:30:07;51.63;;;43.88;;
22034;SDS011;11181;51.002;4.356;2023-07-09T06:32:43;49.47;;;43.42;;
22034;SDS011;11181;51.002;4.356;2023-07-09T06:35:14;51.80;;;41.53;;
22034;SDS011;11181;51.002;4.356;2023-07-09T06:37:41;56.88;;;45.40;;
22034;SDS011;11181;51.002;4.356;2023-07-09T06:40:08;52.90;;;43.13;;
22034;SDS011;11181;51.002;4.356;2023-07-09T06:42:35;49.92;;;40.53;;
22034;SDS011;11181;51.002;4.356;2023-07-09T06:45:03;48.15;;;41.13;;
22034;SDS011;11181;51.002;4.356;2023-07-09T06:47:30;49.70;;;41.17;;
22034;SDS011;11181;51.002;4.356;2023-07-09T06:49:58;54.03;;;40.72;;
22034;SDS011;11181;51.002;4.356;2023-07-09T06:52:26;47.25;;;39.10;;
22034;SDS011;11181;51.002;4.356;2023-07-09T06:54:53;50.15;;;41.45;;
22034;SDS011;11181;51.002;4.356;2023-07-09T06:57:20;48.50;;;38.97;;
22034;SDS011;11181;51.002;4.356;2023-07-09T06:59:47;46.72;;;38.38;;
22034;SDS011;11181;51.002;4.356;2023-07-09T07:02:14;46.33;;;40.28;;
22034;SDS011;11181;51.002;4.356;2023-07-09T07:04:41;48.75;;;38.53;;
22034;SDS011;11181;51.002;4.356;2023-07-09T07:07:08;49.80;;;39.63;;
22034;SDS011;11181;51.002;4.356;2023-07-09T07:09:36;45.28;;;38.20;;
22034;SDS011;11181;51.002;4.356;2023-07-09T07:12:03;44.80;;;37.38;;
22034;SDS011;11181;51.002;4.356;2023-07-09T07:14:31;41.83;;;35.75;;
22034;SDS011;11181;51.002;4.356;2023-07-09T07:16:58;44.38;;;36.90;;
22034;SDS011;11181;51.002;4.356;2023-07-09T07:19:26;48.58;;;36.97;;
22034;SDS011;11181;51.002;4.356;2023-07-09T07:21:53;50.85;;;39.13;;
22034;SDS011;11181;51.002;4.356;2023-07-09T07:24:20;43.50;;;36.67;;
22034;SDS011;11181;51.002;4.356;2023-07-09T07:26:48;46.92;;;37.45;;
22034;SDS011;11181;51.002;4.356;2023-07-09T07:29:15;43.83;;;36.17;;
22034;SDS011;11181;51.002;4.356;2023-07-09T07:31:42;44.88;;;36.03;;
22034;SDS011;11181;51.002;4.356;2023-07-09T07:34:10;44.65;;;38.00;;
22034;SDS011;11181;51.002;4.356;2023-07-09T07:36:37;44.97;;;36.63;;
22034;SDS011;11181;51.002;4.356;2023-07-09T07:39:04;41.65;;;34.78;;
22034;SDS011;11181;51.002;4.356;2023-07-09T07:41:31;45.25;;;33.55;;
22034;SDS011;11181;51.002;4.356;2023-07-09T07:43:59;41.92;;;34.22;;
22034;SDS011;11181;51.002;4.356;2023-07-09T07:46:26;47.47;;;33.22;;
22034;SDS011;11181;51.002;4.356;2023-07-09T07:48:54;36.38;;;30.63;;
22034;SDS011;11181;51.002;4.356;2023-07-09T07:51:21;38.42;;;31.73;;
22034;SDS011;11181;51.002;4.356;2023-07-09T07:53:48;36.60;;;29.85;;
22034;SDS011;11181;51.002;4.356;2023-07-09T07:56:15;35.15;;;29.05;;
22034;SDS011;11181;51.002;4.356;2023-07-09T07:58:42;41.15;;;34.65;;
22034;SDS011;11181;51.002;4.356;2023-07-09T08:01:10;38.10;;;31.85;;
22034;SDS011;11181;51.002;4.356;2023-07-09T08:03:37;46.45;;;37.45;;
22034;SDS011;11181;51.002;4.356;2023-07-09T08:06:04;42.20;;;34.80;;
22034;SDS011;11181;51.002;4.356;2023-07-09T08:08:31;35.47;;;31.05;;
22034;SDS011;11181;51.002;4.356;2023-07-09T08:11:01;39.88;;;34.63;;
22034;SDS011;11181;51.002;4.356;2023-07-09T08:13:31;37.53;;;32.35;;
22034;SDS011;11181;51.002;4.356;2023-07-09T08:15:58;38.75;;;32.38;;
22034;SDS011;11181;51.002;4.356;2023-07-09T08:18:26;42.70;;;32.53;;
22034;SDS011;11181;51.002;4.356;2023-07-09T08:20:53;39.03;;;33.63;;
22034;SDS011;11181;51.002;4.356;2023-07-09T08:23:20;35.92;;;29.92;;
22034;SDS011;11181;51.002;4.356;2023-07-09T08:25:52;36.00;;;29.98;;
22034;SDS011;11181;51.002;4.356;2023-07-09T08:28:19;29.95;;;26.73;;
22034;SDS011;11181;51.002;4.356;2023-07-09T08:30:46;33.40;;;28.58;;
22034;SDS011;11181;51.002;4.356;2023-07-09T08:33:13;34.45;;;28.63;;
22034;SDS011;11181;51.002;4.356;2023-07-09T08:35:43;32.95;;;27.67;;
22034;SDS011;11181;51.002;4.356;2023-07-09T08:38:10;32.40;;;27.90;;
22034;SDS011;11181;51.002;4.356;2023-07-09T08:40:38;32.92;;;28.23;;
22034;SDS011;11181;51.002;4.356;2023-07-09T08:43:10;29.50;;;26.30;;
22034;SDS011;11181;51.002;4.356;2023-07-09T08:45:46;28.63;;;22.25;;
22034;SDS011;11181;51.002;4.356;2023-07-09T08:48:18;26.65;;;23.17;;
22034;SDS011;11181;51.002;4.356;2023-07-09T08:50:53;28.55;;;22.90;;
22034;SDS011;11181;51.002;4.356;2023-07-09T08:53:25;33.13;;;24.13;;
22034;SDS011;11181;51.002;4.356;2023-07-09T08:55:57;22.77;;;19.30;;
22034;SDS011;11181;51.002;4.356;2023-07-09T08:58:26;18.98;;;15.38;;
22034;SDS011;11181;51.002;4.356;2023-07-09T09:00:55;20.55;;;15.30;;
22034;SDS011;11181;51.002;4.356;2023-07-09T09:03:27;21.55;;;16.20;;
22034;SDS011;11181;51.002;4.356;2023-07-09T09:06:02;21.67;;;16.80;;
22034;SDS011;11181;51.002;4.356;2023-07-09T09:08:32;16.95;;;13.90;;
22034;SDS011;11181;51.002;4.356;2023-07-09T09:11:07;20.02;;;13.30;;
22034;SDS011;11181;51.002;4.356;2023-07-09T09:13:38;20.05;;;16.52;;
22034;SDS011;11181;51.002;4.356;2023-07-09T09:16:12;20.55;;;14.57;;
22034;SDS011;11181;51.002;4.356;2023-07-09T09:18:47;17.70;;;13.65;;
22034;SDS011;11181;51.002;4.356;2023-07-09T09:21:19;24.15;;;13.60;;
22034;SDS011;11181;51.002;4.356;2023-07-09T09:23:50;16.08;;;12.73;;
22034;SDS011;11181;51.002;4.356;2023-07-09T09:26:21;16.77;;;14.13;;
22034;SDS011;11181;51.002;4.356;2023-07-09T09:28:50;15.90;;;12.50;;
22034;SDS011;11181;51.002;4.356;2023-07-09T09:31:18;15.30;;;13.32;;
22034;SDS011;11181;51.002;4.356;2023-07-09T09:33:46;14.13;;;11.35;;
22034;SDS011;11181;51.002;4.356;2023-07-09T09:36:17;13.55;;;9.68;;
22034;SDS011;11181;51.002;4.356;2023-07-09T09:38:46;12.98;;;8.88;;
22034;SDS011;11181;51.002;4.356;2023-07-09T09:41:15;12.65;;;9.45;;
22034;SDS011;11181;51.002;4.356;2023-07-09T09:43:44;10.82;;;8.95;;
22034;SDS011;11181;51.002;4.356;2023-07-09T09:46:17;10.73;;;8.10;;
22034;SDS011;11181;51.002;4.356;2023-07-09T09:48:46;10.15;;;7.50;;
22034;SDS011;11181;51.002;4.356;2023-07-09T09:51:14;10.50;;;7.85;;
22034;SDS011;11181;51.002;4.356;2023-07-09T09:53:45;11.48;;;7.68;;
22034;SDS011;11181;51.002;4.356;2023-07-09T09:56:17;10.32;;;7.53;;
22034;SDS011;11181;51.002;4.356;2023-07-09T09:58:45;8.25;;;6.70;;
22034;SDS011;11181;51.002;4.356;2023-07-09T10:01:17;8.35;;;6.50;;
22034;SDS011;11181;51.002;4.356;2023-07-09T10:03:47;10.48;;;6.88;;
22034;SDS011;11181;51.002;4.356;2023-07-09T10:06:18;6.68;;;5.13;;
22034;SDS011;11181;51.002;4.356;2023-07-09T10:08:52;11.25;;;5.85;;
22034;SDS011;11181;51.002;4.356;2023-07-09T10:11:28;7.50;;;4.78;;
22034;SDS011;11181;51.002;4.356;2023-07-09T10:14:00;7.97;;;5.32;;
22034;SDS011;11181;51.002;4.356;2023-07-09T10:16:34;8.00;;;5.47;;
22034;SDS011;11181;51.002;4.356;2023-07-09T10:19:09;9.70;;;5.38;;
22034;SDS011;11181;51.002;4.356;2023-07-09T10:21:45;5.38;;;4.85;;
22034;SDS011;11181;51.002;4.356;2023-07-09T10:24:21;8.38;;;4.93;;
22034;SDS011;11181;51.002;4.356;2023-07-09T10:27:03;6.68;;;4.25;;
22034;SDS011;11181;51.002;4.356;2023-07-09T10:29:44;5.80;;;3.90;;
22034;SDS011;11181;51.002;4.356;2023-07-09T10:32:32;4.63;;;3.58;;
22034;SDS011;11181;51.002;4.356;2023-07-09T10:35:09;3.88;;;3.17;;
22034;SDS011;11181;51.002;4.356;2023-07-09T10:37:48;6.35;;;4.75;;
22034;SDS011;11181;51.002;4.356;2023-07-09T10:40:31;6.18;;;4.15;;
22034;SDS011;11181;51.002;4.356;2023-07-09T10:43:03;5.18;;;3.35;;
22034;SDS011;11181;51.002;4.356;2023-07-09T10:45:33;5.38;;;4.13;;
22034;SDS011;11181;51.002;4.356;2023-07-09T10:48:06;4.20;;;2.97;;
22034;SDS011;11181;51.002;4.356;2023-07-09T10:50:39;5.80;;;3.45;;
22034;SDS011;11181;51.002;4.356;2023-07-09T10:53:11;3.88;;;3.00;;
22034;SDS011;11181;51.002;4.356;2023-07-09T10:55:43;4.53;;;3.35;;
22034;SDS011;11181;51.002;4.356;2023-07-09T10:58:22;3.80;;;2.92;;
22034;SDS011;11181;51.002;4.356;2023-07-09T11:00:57;3.35;;;2.53;;
22034;SDS011;11181;51.002;4.356;2023-07-09T11:03:35;4.47;;;2.95;;
22034;SDS011;11181;51.002;4.356;2023-07-09T11:06:10;5.70;;;3.15;;
22034;SDS011;11181;51.002;4.356;2023-07-09T11:08:44;4.20;;;3.05;;
22034;SDS011;11181;51.002;4.356;2023-07-09T11:11:17;5.28;;;3.60;;
22034;SDS011;11181;51.002;4.356;2023-07-09T11:13:52;6.57;;;3.15;;
22034;SDS011;11181;51.002;4.356;2023-07-09T11:16:24;5.07;;;3.10;;
22034;SDS011;11181;51.002;4.356;2023-07-09T11:18:56;4.00;;;3.60;;
22034;SDS011;11181;51.002;4.356;2023-07-09T11:21:25;5.60;;;3.03;;
22034;SDS011;11181;51.002;4.356;2023-07-09T11:23:55;4.15;;;2.80;;
22034;SDS011;11181;51.002;4.356;2023-07-09T11:26:25;3.60;;;2.75;;
22034;SDS011;11181;51.002;4.356;2023-07-09T11:28:55;4.15;;;2.78;;
22034;SDS011;11181;51.002;4.356;2023-07-09T11:31:36;4.20;;;2.47;;
22034;SDS011;11181;51.002;4.356;2023-07-09T11:34:08;4.53;;;2.70;;
22034;SDS011;11181;51.002;4.356;2023-07-09T11:36:45;4.80;;;3.13;;
22034;SDS011;11181;51.002;4.356;2023-07-09T11:39:22;3.75;;;2.75;;
22034;SDS011;11181;51.002;4.356;2023-07-09T11:41:54;3.28;;;2.80;;
22034;SDS011;11181;51.002;4.356;2023-07-09T11:44:22;4.00;;;2.92;;
22034;SDS011;11181;51.002;4.356;2023-07-09T11:47:01;3.58;;;2.58;;
22034;SDS011;11181;51.002;4.356;2023-07-09T11:49:42;5.43;;;3.33;;
22034;SDS011;11181;51.002;4.356;2023-07-09T11:52:17;3.47;;;2.65;;
22034;SDS011;11181;51.002;4.356;2023-07-09T11:54:49;5.05;;;3.45;;
22034;SDS011;11181;51.002;4.356;2023-07-09T11:57:16;4.10;;;2.40;;
22034;SDS011;11181;51.002;4.356;2023-07-09T11:59:44;6.30;;;2.53;;
22034;SDS011;11181;51.002;4.356;2023-07-09T12:02:14;3.47;;;2.50;;
22034;SDS011;11181;51.002;4.356;2023-07-09T12:04:43;6.05;;;3.00;;
22034;SDS011;11181;51.002;4.356;2023-07-09T12:07:13;4.57;;;3.15;;
22034;SDS011;11181;51.002;4.356;2023-07-09T12:09:43;4.00;;;2.80;;
22034;SDS011;11181;51.002;4.356;2023-07-09T12:12:18;3.92;;;2.92;;
22034;SDS011;11181;51.002;4.356;2023-07-09T12:14:47;3.83;;;2.63;;
22034;SDS011;11181;51.002;4.356;2023-07-09T12:17:15;4.43;;;2.55;;
22034;SDS011;11181;51.002;4.356;2023-07-09T12:19:42;3.13;;;2.55;;
22034;SDS011;11181;51.002;4.356;2023-07-09T12:22:10;4.43;;;3.28;;
22034;SDS011;11181;51.002;4.356;2023-07-09T12:24:43;4.75;;;2.55;;
22034;SDS011;11181;51.002;4.356;2023-07-09T12:27:18;4.57;;;3.13;;
22034;SDS011;11181;51.002;4.356;2023-07-09T12:29:49;3.90;;;3.28;;
22034;SDS011;11181;51.002;4.356;2023-07-09T12:32:18;5.10;;;3.00;;
22034;SDS011;11181;51.002;4.356;2023-07-09T12:34:49;4.40;;;2.50;;
22034;SDS011;11181;51.002;4.356;2023-07-09T12:37:17;10.85;;;3.63;;
22034;SDS011;11181;51.002;4.356;2023-07-09T12:39:48;5.50;;;3.22;;
22034;SDS011;11181;51.002;4.356;2023-07-09T12:42:19;8.20;;;3.85;;
22034;SDS011;11181;51.002;4.356;2023-07-09T12:44:55;10.52;;;4.35;;
22034;SDS011;11181;51.002;4.356;2023-07-09T12:47:23;7.53;;;3.80;;
22034;SDS011;11181;51.002;4.356;2023-07-09T12:49:51;6.25;;;3.92;;
22034;SDS011;11181;51.002;4.356;2023-07-09T12:52:27;9.27;;;4.78;;
22034;SDS011;11181;51.002;4.356;2023-07-09T12:54:57;7.63;;;4.03;;
22034;SDS011;11181;51.002;4.356;2023-07-09T12:57:27;8.80;;;4.57;;
22034;SDS011;11181;51.002;4.356;2023-07-09T12:59:55;5.20;;;3.63;;
22034;SDS011;11181;51.002;4.356;2023-07-09T13:02:23;7.53;;;4.13;;
22034;SDS011;11181;51.002;4.356;2023-07-09T13:04:58;9.68;;;4.10;;
22034;SDS011;11181;51.002;4.356;2023-07-09T13:07:29;6.25;;;3.78;;
22034;SDS011;11181;51.002;4.356;2023-07-09T13:10:04;8.25;;;4.45;;
22034;SDS011;11181;51.002;4.356;2023-07-09T13:12:44;8.73;;;4.72;;
22034;SDS011;11181;51.002;4.356;2023-07-09T13:15:25;6.03;;;4.40;;
22034;SDS011;11181;51.002;4.356;2023-07-09T13:17:57;10.43;;;4.53;;
22034;SDS011;11181;51.002;4.356;2023-07-09T13:20:25;5.13;;;4.15;;
22034;SDS011;11181;51.002;4.356;2023-07-09T13:22:52;5.85;;;4.47;;
22034;SDS011;11181;51.002;4.356;2023-07-09T13:25:19;9.10;;;4.75;;
22034;SDS011;11181;51.002;4.356;2023-07-09T13:27:48;6.22;;;3.90;;
22034;SDS011;11181;51.002;4.356;2023-07-09T13:30:15;6.03;;;3.90;;
22034;SDS011;11181;51.002;4.356;2023-07-09T13:32:43;7.32;;;4.22;;
22034;SDS011;11181;51.002;4.356;2023-07-09T13:35:14;5.78;;;3.90;;
22034;SDS011;11181;51.002;4.356;2023-07-09T13:37:42;8.32;;;3.55;;
22034;SDS011;11181;51.002;4.356;2023-07-09T13:42:39;4.88;;;3.47;;
22034;SDS011;11181;51.002;4.356;2023-07-09T13:45:12;6.00;;;3.35;;
22034;SDS011;11181;51.002;4.356;2023-07-09T13:47:43;6.78;;;4.30;;
22034;SDS011;11181;51.002;4.356;2023-07-09T13:50:10;6.03;;;3.67;;
22034;SDS011;11181;51.002;4.356;2023-07-09T13:52:37;7.22;;;4.13;;
22034;SDS011;11181;51.002;4.356;2023-07-09T13:55:05;7.07;;;3.95;;
22034;SDS011;11181;51.002;4.356;2023-07-09T13:57:36;7.32;;;4.90;;
22034;SDS011;11181;51.002;4.356;2023-07-09T14:00:03;6.30;;;4.78;;
22034;SDS011;11181;51.002;4.356;2023-07-09T14:02:34;8.10;;;4.93;;
22034;SDS011;11181;51.002;4.356;2023-07-09T14:05:02;7.82;;;4.20;;
22034;SDS011;11181;51.002;4.356;2023-07-09T14:07:31;6.15;;;4.20;;
22034;SDS011;11181;51.002;4.356;2023-07-09T14:09:59;9.20;;;4.35;;
22034;SDS011;11181;51.002;4.356;2023-07-09T14:12:27;7.97;;;4.85;;
22034;SDS011;11181;51.002;4.356;2023-07-09T14:14:55;6.60;;;4.13;;
22034;SDS011;11181;51.002;4.356;2023-07-09T14:17:24;9.73;;;4.32;;
22034;SDS011;11181;51.002;4.356;2023-07-09T14:19:53;5.68;;;3.80;;
22034;SDS011;11181;51.002;4.356;2023-07-09T14:22:23;8.00;;;4.07;;
22034;SDS011;11181;51.002;4.356;2023-07-09T14:24:56;5.90;;;4.32;;
22034;SDS011;11181;51.002;4.356;2023-07-09T14:27:24;9.88;;;4.30;;
22034;SDS011;11181;51.002;4.356;2023-07-09T14:29:51;6.60;;;4.22;;
22034;SDS011;11181;51.002;4.356;2023-07-09T14:32:25;5.65;;;4.00;;
22034;SDS011;11181;51.002;4.356;2023-07-09T14:35:03;8.35;;;4.18;;
22034;SDS011;11181;51.002;4.356;2023-07-09T14:37:36;6.70;;;3.53;;
22034;SDS011;11181;51.002;4.356;2023-07-09T14:40:03;6.00;;;3.83;;
22034;SDS011;11181;51.002;4.356;2023-07-09T14:42:31;9.15;;;3.13;;
22034;SDS011;11181;51.002;4.356;2023-07-09T14:44:58;4.70;;;3.53;;
22034;SDS011;11181;51.002;4.356;2023-07-09T14:47:25;4.68;;;3.47;;
22034;SDS011;11181;51.002;4.356;2023-07-09T14:49:53;4.45;;;3.00;;
22034;SDS011;11181;51.002;4.356;2023-07-09T14:52:21;5.43;;;3.25;;
22034;SDS011;11181;51.002;4.356;2023-07-09T14:54:48;5.75;;;2.92;;
22034;SDS011;11181;51.002;4.356;2023-07-09T14:57:20;3.63;;;3.03;;
22034;SDS011;11181;51.002;4.356;2023-07-09T14:59:48;5.55;;;2.67;;
22034;SDS011;11181;51.002;4.356;2023-07-09T15:02:22;2.80;;;2.15;;
22034;SDS011;11181;51.002;4.356;2023-07-09T15:04:56;4.53;;;2.70;;
22034;SDS011;11181;51.002;4.356;2023-07-09T15:07:25;4.97;;;3.38;;
22034;SDS011;11181;51.002;4.356;2023-07-09T15:09:55;4.07;;;2.65;;